createdAt,value
2023-01-03T00:00:25.264Z,9.57
2023-01-03T00:03:28.714Z,6.93
2023-01-03T00:06:32.199Z,7.88
2023-01-03T00:09:34.037Z,5.95
2023-01-03T00:12:36.362Z,9.68
2023-01-03T00:15:38.304Z,8.02
2023-01-03T00:18:41.515Z,3.97
2023-01-03T00:21:44.048Z,7.65
2023-01-03T00:24:47.649Z,6.47
2023-01-03T00:27:49.803Z,8.57
2023-01-03T00:30:51.650Z,4.93
2023-01-03T00:33:55.195Z,5.35
2023-01-03T00:36:57.654Z,7.45
2023-01-03T00:39:59.452Z,11.02
2023-01-03T00:43:01.689Z,5.55
2023-01-03T00:46:04.739Z,7.78
2023-01-03T00:49:08.972Z,5.20
2023-01-03T00:52:10.774Z,6.15
2023-01-03T00:55:12.635Z,7.00
2023-01-03T00:58:14.998Z,6.75
2023-01-03T01:01:18.796Z,5.70
2023-01-03T01:04:24.458Z,4.97
2023-01-03T01:07:26.274Z,7.32
2023-01-03T01:10:28.096Z,5.50
2023-01-03T01:13:30.438Z,4.65
2023-01-03T01:16:32.843Z,4.78
2023-01-03T01:19:39.506Z,6.60
2023-01-03T01:22:41.605Z,6.93
2023-01-03T01:25:43.443Z,7.00
2023-01-03T01:28:45.683Z,5.55
2023-01-03T01:31:48.238Z,7.00
2023-01-03T01:34:51.657Z,5.57
2023-01-03T01:37:53.514Z,5.80
2023-01-03T01:40:56.035Z,9.50
2023-01-03T01:43:58.832Z,8.18
2023-01-03T01:47:02.402Z,7.45
2023-01-03T01:50:15.260Z,6.72
2023-01-03T01:53:20.704Z,5.07
2023-01-03T01:56:26.914Z,7.50
2023-01-03T01:59:28.827Z,5.72
2023-01-03T02:02:30.892Z,6.53
2023-01-03T02:05:36.932Z,7.13
2023-01-03T02:08:41.581Z,8.90
2023-01-03T02:11:53.891Z,5.20
2023-01-03T02:15:08.747Z,4.93
2023-01-03T02:18:32.186Z,7.03
2023-01-03T02:22:02.066Z,5.53
2023-01-03T02:25:35.686Z,2.88
2023-01-03T02:29:07.258Z,5.38
2023-01-03T02:32:14.085Z,6.47
2023-01-03T02:35:23.724Z,5.78
2023-01-03T02:38:34.619Z,7.43
2023-01-03T02:41:44.095Z,7.38
2023-01-03T02:44:52.571Z,4.60
2023-01-03T02:48:03.112Z,5.33
2023-01-03T02:51:12.256Z,4.93
2023-01-03T02:54:19.449Z,5.28
2023-01-03T02:57:26.963Z,5.10
2023-01-03T03:00:32.348Z,5.97
2023-01-03T03:03:37.822Z,5.70
2023-01-03T03:06:47.774Z,5.32
2023-01-03T03:09:49.784Z,3.88
2023-01-03T03:12:56.218Z,6.60
2023-01-03T03:16:05.861Z,5.43
2023-01-03T03:19:20.249Z,7.53
2023-01-03T03:22:30.249Z,4.93
2023-01-03T03:25:36.234Z,5.32
2023-01-03T03:28:40.967Z,4.70
2023-01-03T03:31:46.242Z,4.13
2023-01-03T03:34:50.351Z,3.42
2023-01-03T03:37:55.801Z,4.30
2023-01-03T03:41:14.781Z,2.45
2023-01-03T03:44:26.182Z,4.47
2023-01-03T03:47:37.431Z,3.72
2023-01-03T03:50:46.795Z,4.30
2023-01-03T03:56:59.933Z,3.55
2023-01-03T04:00:11.282Z,3.33
2023-01-03T04:03:15.448Z,5.88
2023-01-03T04:06:22.808Z,2.90
2023-01-03T04:09:24.702Z,3.78
2023-01-03T04:12:26.601Z,3.33
2023-01-03T04:15:28.369Z,2.90
2023-01-03T04:18:30.276Z,5.80
2023-01-03T04:21:33.564Z,4.30
2023-01-03T04:24:35.376Z,4.85
2023-01-03T04:27:37.278Z,3.55
2023-01-03T04:30:39.118Z,5.35
2023-01-03T04:33:40.977Z,6.03
2023-01-03T04:36:44.184Z,3.97
2023-01-03T04:39:45.947Z,4.10
2023-01-03T04:42:47.760Z,5.32
2023-01-03T04:45:50.085Z,3.88
2023-01-03T04:48:51.951Z,4.28
2023-01-03T04:51:55.164Z,7.30
2023-01-03T04:54:56.968Z,3.38
2023-01-03T04:57:58.766Z,4.97
2023-01-03T05:01:01.114Z,5.82
2023-01-03T05:04:03.088Z,4.55
2023-01-03T05:07:06.295Z,6.65
2023-01-03T05:10:08.758Z,6.43
2023-01-03T05:13:10.657Z,5.40
2023-01-03T05:16:14.530Z,8.15
2023-01-03T05:19:16.488Z,4.05
2023-01-03T05:22:19.676Z,6.25
2023-01-03T05:25:21.452Z,6.00
2023-01-03T05:28:24.130Z,9.75
2023-01-03T05:31:25.995Z,4.80
2023-01-03T05:34:27.837Z,6.97
2023-01-03T05:37:31.016Z,3.97
2023-01-03T05:40:37.664Z,7.90
2023-01-03T05:43:42.795Z,5.00
2023-01-03T05:46:44.614Z,4.95
2023-01-03T05:49:46.443Z,7.18
2023-01-03T05:52:49.632Z,7.45
2023-01-03T05:55:51.556Z,3.15
2023-01-03T05:58:53.343Z,8.45
2023-01-03T06:01:55.486Z,7.00
2023-01-03T06:04:57.485Z,4.97
2023-01-03T06:08:01.582Z,6.32
2023-01-03T06:11:05.761Z,6.13
2023-01-03T06:14:07.813Z,9.80
2023-01-03T06:17:09.662Z,10.93
2023-01-03T06:20:12.017Z,5.60
2023-01-03T06:23:15.241Z,5.60
2023-01-03T06:26:19.502Z,4.10
2023-01-03T06:29:21.601Z,4.32
2023-01-03T06:32:23.371Z,5.80
2023-01-03T06:35:25.181Z,4.90
2023-01-03T06:38:28.962Z,5.85
2023-01-03T06:41:30.759Z,6.25
2023-01-03T06:44:32.539Z,5.05
2023-01-03T06:47:34.580Z,8.23
2023-01-03T06:50:39.091Z,7.90
2023-01-03T06:53:43.124Z,4.78
2023-01-03T06:56:45.075Z,8.88
2023-01-03T06:59:47.052Z,6.82
2023-01-03T07:02:49.033Z,6.10
2023-01-03T07:05:51.500Z,5.95
2023-01-03T07:08:54.717Z,7.25
2023-01-03T07:11:56.509Z,4.82
2023-01-03T07:14:58.371Z,10.05
2023-01-03T07:18:00.245Z,7.70
2023-01-03T07:21:05.769Z,7.20
2023-01-03T07:24:11.646Z,6.32
2023-01-03T07:27:13.455Z,7.65
2023-01-03T07:30:15.354Z,7.53
2023-01-03T07:33:17.804Z,6.55
2023-01-03T07:36:21.104Z,7.00
2023-01-03T07:39:24.357Z,6.78
2023-01-03T07:42:26.105Z,6.20
2023-01-03T07:45:27.923Z,8.05
2023-01-03T07:48:29.720Z,6.60
2023-01-03T07:51:31.532Z,8.27
2023-01-03T07:54:34.823Z,8.10
2023-01-03T07:57:37.141Z,7.80
2023-01-03T08:00:39.305Z,10.85
2023-01-03T08:03:41.613Z,6.90
2023-01-03T08:06:43.457Z,6.50
2023-01-03T08:09:46.637Z,7.05
2023-01-03T08:12:48.453Z,8.00
2023-01-03T08:15:52.230Z,9.10
2023-01-03T08:18:54.522Z,6.45
2023-01-03T08:21:56.298Z,5.90
2023-01-03T08:24:59.571Z,7.30
2023-01-03T08:28:01.960Z,8.45
2023-01-03T08:31:08.481Z,5.63
2023-01-03T08:34:18.658Z,4.97
2023-01-03T08:37:22.884Z,7.20
2023-01-03T08:40:26.186Z,8.70
2023-01-03T08:43:29.303Z,4.88
2023-01-03T08:46:33.339Z,5.35
2023-01-03T08:49:35.494Z,10.00
2023-01-03T08:52:37.432Z,7.10
2023-01-03T08:55:40.671Z,6.25
2023-01-03T08:58:42.442Z,5.97
2023-01-03T09:01:44.397Z,5.20
2023-01-03T09:04:46.333Z,3.70
2023-01-03T09:07:48.216Z,4.05
2023-01-03T09:10:51.445Z,3.55
2023-01-03T09:13:55.232Z,5.63
2023-01-03T09:16:57.216Z,4.78
2023-01-03T09:19:59.054Z,7.30
2023-01-03T09:23:00.853Z,4.25
2023-01-03T09:26:04.963Z,3.47
2023-01-03T09:29:06.730Z,4.63
2023-01-03T09:32:08.561Z,4.15
2023-01-03T09:35:10.528Z,8.85
2023-01-03T09:38:12.367Z,6.53
2023-01-03T09:41:22.013Z,5.25
2023-01-03T09:44:23.893Z,5.05
2023-01-03T09:47:26.403Z,3.63
2023-01-03T09:50:50.228Z,3.72
2023-01-03T09:53:54.086Z,4.18
2023-01-03T09:56:57.544Z,3.88
2023-01-03T09:59:59.374Z,5.13
2023-01-03T10:03:22.541Z,5.68
2023-01-03T10:06:35.364Z,9.13
2023-01-03T10:09:46.206Z,8.52
2023-01-03T10:13:03.119Z,6.50
2023-01-03T10:16:15.305Z,6.20
2023-01-03T10:19:34.871Z,6.95
2023-01-03T10:22:39.109Z,5.13
2023-01-03T10:25:45.173Z,4.60
2023-01-03T10:28:48.566Z,5.82
2023-01-03T10:32:08.313Z,6.38
2023-01-03T10:38:18.989Z,4.55
2023-01-03T10:41:29.903Z,4.45
2023-01-03T10:44:33.605Z,3.70
2023-01-03T10:47:35.460Z,3.47
2023-01-03T10:50:38.034Z,4.90
2023-01-03T10:53:42.005Z,4.28
2023-01-03T10:56:45.500Z,4.50
2023-01-03T10:59:50.179Z,6.00
2023-01-03T11:02:52.753Z,5.28
2023-01-03T11:06:08.723Z,6.05
2023-01-03T11:09:10.867Z,5.20
2023-01-03T11:12:14.772Z,4.80
2023-01-03T11:15:19.988Z,6.03
2023-01-03T11:18:21.975Z,4.47
2023-01-03T11:21:30.247Z,7.32
2023-01-03T11:24:49.157Z,7.63
2023-01-03T11:28:19.679Z,4.75
2023-01-03T11:31:34.510Z,6.90
2023-01-03T11:35:22.337Z,5.72
2023-01-03T11:38:31.713Z,6.70
2023-01-03T11:41:59.297Z,5.43
2023-01-03T11:45:23.432Z,4.35
2023-01-03T11:48:55.659Z,6.32
2023-01-03T11:52:13.074Z,4.72
2023-01-03T11:55:28.100Z,6.38
2023-01-03T11:58:53.558Z,5.70
2023-01-03T12:02:29.194Z,7.05
2023-01-03T12:05:53.033Z,5.55
2023-01-03T12:09:06.979Z,8.35
2023-01-03T12:12:36.990Z,6.20
2023-01-03T12:15:44.740Z,5.93
2023-01-03T12:18:53.176Z,5.70
2023-01-03T12:22:02.732Z,6.93
2023-01-03T12:25:15.248Z,7.15
2023-01-03T12:28:23.921Z,5.35
2023-01-03T12:31:32.608Z,5.68
2023-01-03T12:34:39.795Z,5.90
2023-01-03T12:37:45.950Z,5.13
2023-01-03T12:40:52.728Z,8.20
2023-01-03T12:44:00.209Z,5.20
2023-01-03T12:47:03.699Z,5.55
2023-01-03T12:50:13.810Z,4.63
2023-01-03T12:53:24.081Z,6.07
2023-01-03T12:56:53.912Z,8.30
2023-01-03T13:00:22.722Z,5.15
2023-01-03T13:03:29.526Z,5.63
2023-01-03T13:06:34.897Z,5.22
2023-01-03T13:09:42.839Z,6.43
2023-01-03T13:12:50.672Z,14.25
2023-01-03T13:15:53.988Z,15.38
2023-01-03T13:18:55.848Z,16.70
2023-01-03T13:22:03.797Z,15.73
2023-01-03T13:25:30.966Z,10.50
2023-01-03T13:28:33.844Z,8.68
2023-01-03T13:31:38.809Z,6.05
2023-01-03T13:34:40.770Z,6.97
2023-01-03T13:37:44.704Z,6.60
2023-01-03T13:41:18.612Z,6.28
2023-01-03T13:44:19.548Z,6.15
2023-01-03T13:47:30.848Z,5.97
2023-01-03T13:50:34.943Z,8.98
2023-01-03T13:53:39.036Z,6.68
2023-01-03T13:57:04.115Z,44.90
2023-01-03T14:00:17.692Z,22.40
2023-01-03T14:03:48.853Z,17.95
2023-01-03T14:07:05.132Z,49.70
2023-01-03T14:10:20.380Z,104.78
2023-01-03T14:13:36.659Z,21.13
2023-01-03T14:16:45.655Z,18.33
2023-01-03T14:19:51.319Z,18.98
2023-01-03T14:22:54.705Z,10.10
2023-01-03T14:26:04.760Z,9.68
2023-01-03T14:29:15.781Z,12.98
2023-01-03T14:32:21.806Z,16.55
2023-01-03T14:35:38.368Z,12.60
2023-01-03T14:38:47.360Z,12.90
2023-01-03T14:41:49.270Z,9.65
2023-01-03T14:44:55.556Z,14.05
2023-01-03T14:47:57.472Z,9.18
2023-01-03T14:51:01.223Z,10.40
2023-01-03T14:54:04.222Z,14.52
2023-01-03T14:57:06.143Z,9.85
2023-01-03T15:00:16.532Z,9.13
2023-01-03T15:03:18.892Z,23.20
2023-01-03T15:06:23.755Z,28.40
2023-01-03T15:09:26.019Z,23.02
2023-01-03T15:12:36.851Z,29.65
2023-01-03T15:15:40.225Z,19.23
2023-01-03T15:18:43.877Z,15.32
2023-01-03T15:21:45.812Z,13.45
2023-01-03T15:24:51.107Z,14.38
2023-01-03T15:27:52.943Z,13.60
2023-01-03T15:30:59.184Z,8.38
2023-01-03T15:34:09.610Z,6.55
2023-01-03T15:37:15.049Z,8.43
2023-01-03T15:40:17.337Z,6.45
2023-01-03T15:43:25.154Z,11.27
2023-01-03T15:46:28.466Z,16.27
2023-01-03T15:49:37.172Z,10.13
2023-01-03T15:52:39.033Z,8.82
2023-01-03T15:55:40.931Z,8.02
2023-01-03T15:58:42.968Z,8.10
2023-01-03T16:01:46.312Z,7.60
2023-01-03T16:04:48.789Z,7.53
2023-01-03T16:07:50.742Z,9.27
2023-01-03T16:10:52.991Z,8.43
2023-01-03T16:13:57.761Z,7.18
2023-01-03T16:17:02.285Z,10.02
2023-01-03T16:20:04.713Z,13.88
2023-01-03T16:23:08.341Z,14.73
2023-01-03T16:26:10.414Z,14.50
2023-01-03T16:29:12.955Z,15.55
2023-01-03T16:32:20.716Z,13.35
2023-01-03T16:35:22.791Z,14.38
2023-01-03T16:38:24.599Z,18.40
2023-01-03T16:41:26.454Z,12.75
2023-01-03T16:44:28.270Z,11.95
2023-01-03T16:47:33.913Z,13.13
2023-01-03T16:50:39.216Z,9.57
2023-01-03T16:53:41.148Z,21.17
2023-01-03T16:56:43.088Z,20.38
2023-01-03T16:59:45.488Z,15.27
2023-01-03T17:02:48.934Z,14.18
2023-01-03T17:05:51.482Z,10.63
2023-01-03T17:08:53.575Z,9.90
2023-01-03T17:11:55.491Z,10.38
2023-01-03T17:14:57.421Z,13.07
2023-01-03T17:18:00.737Z,22.20
2023-01-03T17:21:11.490Z,16.98
2023-01-03T17:24:17.045Z,18.13
2023-01-03T17:27:27.810Z,12.27
2023-01-03T17:30:33.541Z,9.52
2023-01-03T17:33:36.958Z,9.93
2023-01-03T17:36:39.054Z,10.13
2023-01-03T17:39:40.956Z,9.23
2023-01-03T17:42:43.046Z,10.77
2023-01-03T17:45:44.886Z,15.45
2023-01-03T17:48:48.161Z,16.55
2023-01-03T17:51:50.852Z,12.85
2023-01-03T17:54:52.747Z,13.30
2023-01-03T17:57:55.573Z,11.07
2023-01-03T18:00:57.552Z,15.73
2023-01-03T18:04:00.945Z,13.43
2023-01-03T18:07:02.840Z,8.88
2023-01-03T18:10:05.472Z,9.43
2023-01-03T18:13:18.833Z,11.55
2023-01-03T18:16:22.736Z,10.75
2023-01-03T18:19:26.135Z,9.48
2023-01-03T18:22:28.647Z,11.73
2023-01-03T18:25:30.558Z,10.63
2023-01-03T18:28:32.633Z,12.00
2023-01-03T18:31:34.835Z,13.43
2023-01-03T18:34:38.270Z,13.90
2023-01-03T18:37:40.311Z,12.60
2023-01-03T18:40:42.117Z,10.88
2023-01-03T18:43:43.979Z,10.85
2023-01-03T18:46:49.481Z,8.85
2023-01-03T18:49:54.410Z,11.60
2023-01-03T18:53:00.831Z,12.77
2023-01-03T18:56:02.779Z,15.35
2023-01-03T18:59:08.626Z,10.90
2023-01-03T19:02:14.439Z,15.02
2023-01-03T19:05:18.366Z,10.32
2023-01-03T19:08:21.355Z,13.20
2023-01-03T19:11:29.309Z,12.98
2023-01-03T19:14:31.097Z,11.90
2023-01-03T19:17:33.169Z,16.10
2023-01-03T19:20:36.439Z,22.63
2023-01-03T19:23:40.261Z,12.43
2023-01-03T19:26:46.019Z,11.15
2023-01-03T19:29:48.926Z,10.30
2023-01-03T19:32:54.595Z,10.55
2023-01-03T19:35:57.832Z,8.57
2023-01-03T19:38:59.755Z,10.75
2023-01-03T19:42:02.858Z,10.93
2023-01-03T19:45:14.999Z,10.95
2023-01-03T19:48:19.020Z,8.73
2023-01-03T19:51:23.043Z,11.60
2023-01-03T19:54:25.428Z,11.52
2023-01-03T19:57:33.175Z,13.18
2023-01-03T20:00:35.753Z,13.27
2023-01-03T20:03:40.549Z,16.60
2023-01-03T20:06:45.250Z,15.43
2023-01-03T20:09:47.648Z,16.48
2023-01-03T20:12:51.917Z,17.13
2023-01-03T20:15:55.694Z,17.10
2023-01-03T20:18:59.647Z,14.80
2023-01-03T20:22:03.850Z,15.20
2023-01-03T20:25:07.413Z,16.13
2023-01-03T20:28:17.606Z,14.82
2023-01-03T20:31:21.019Z,14.95
2023-01-03T20:34:24.020Z,16.80
2023-01-03T20:37:27.852Z,12.63
2023-01-03T20:40:30.031Z,10.73
2023-01-03T20:43:32.702Z,11.43
2023-01-03T20:46:35.539Z,12.23
2023-01-03T20:49:40.533Z,13.43
2023-01-03T20:52:44.407Z,14.18
2023-01-03T20:55:46.957Z,13.63
2023-01-03T20:58:49.028Z,15.63
2023-01-03T21:01:51.127Z,14.95
2023-01-03T21:04:53.190Z,14.05
2023-01-03T21:07:57.312Z,13.18
2023-01-03T21:10:59.843Z,13.40
2023-01-03T21:14:02.178Z,11.57
2023-01-03T21:17:07.899Z,10.38
2023-01-03T21:20:15.421Z,11.40
2023-01-03T21:23:20.962Z,11.30
2023-01-03T21:26:23.304Z,11.15
2023-01-03T21:29:26.829Z,10.85
2023-01-03T21:32:28.824Z,12.55
2023-01-03T21:35:30.951Z,11.20
2023-01-03T21:38:34.581Z,11.65
2023-01-03T21:41:36.842Z,12.40
2023-01-03T21:44:38.719Z,11.52
2023-01-03T21:47:41.010Z,10.82
2023-01-03T21:50:45.688Z,11.25
2023-01-03T21:53:49.114Z,9.80
2023-01-03T21:56:50.969Z,13.38
2023-01-03T21:59:52.827Z,13.82
2023-01-03T22:02:59.704Z,13.85
2023-01-03T22:06:06.952Z,14.80
2023-01-03T22:09:10.227Z,11.75
2023-01-03T22:12:15.241Z,10.05
2023-01-03T22:15:17.782Z,11.13
2023-01-03T22:18:19.663Z,9.75
2023-01-03T22:21:21.537Z,12.35
2023-01-03T22:24:24.788Z,14.02
2023-01-03T22:27:26.677Z,11.85
2023-01-03T22:30:28.544Z,10.35
2023-01-03T22:33:32.782Z,9.00
2023-01-03T22:36:34.633Z,10.82
2023-01-03T22:39:37.915Z,11.82
2023-01-03T22:42:39.788Z,11.95
2023-01-03T22:45:41.696Z,11.40
2023-01-03T22:48:44.675Z,15.10
2023-01-03T22:51:46.574Z,11.98
2023-01-03T22:54:50.299Z,11.73
2023-01-03T22:57:52.179Z,14.35
2023-01-03T23:00:54.120Z,9.35
2023-01-03T23:03:58.336Z,10.45
2023-01-03T23:07:00.247Z,10.45
2023-01-03T23:10:03.753Z,10.23
2023-01-03T23:13:05.679Z,9.60
2023-01-03T23:16:07.981Z,9.60
2023-01-03T23:19:14.167Z,7.35
2023-01-03T23:22:16.091Z,9.30
2023-01-03T23:25:19.376Z,12.02
2023-01-03T23:28:21.173Z,10.65
2023-01-03T23:31:23.294Z,8.50
2023-01-03T23:34:25.171Z,6.45
2023-01-03T23:37:27.435Z,8.95
2023-01-03T23:40:30.651Z,6.35
2023-01-03T23:43:32.476Z,5.32
2023-01-03T23:46:34.376Z,4.38
2023-01-03T23:49:36.250Z,9.27
2023-01-03T23:52:38.108Z,7.50
2023-01-03T23:55:41.323Z,8.23
2023-01-03T23:58:43.631Z,7.82
